createdAt,value
2018-07-30T00:00:23.843Z,17.65
2018-07-30T00:02:50.480Z,14.55
2018-07-30T00:05:17.335Z,13.75
2018-07-30T00:07:43.981Z,13.32
2018-07-30T00:10:10.694Z,12.85
2018-07-30T00:12:37.487Z,15.90
2018-07-30T00:15:04.160Z,17.27
2018-07-30T00:17:31.570Z,15.57
2018-07-30T00:19:59.171Z,14.70
2018-07-30T00:22:26.581Z,15.10
2018-07-30T00:24:53.968Z,14.85
2018-07-30T00:27:21.539Z,14.15
2018-07-30T00:29:48.913Z,13.18
2018-07-30T00:32:15.566Z,14.13
2018-07-30T00:34:42.471Z,14.35
2018-07-30T00:37:09.193Z,13.02
2018-07-30T00:39:35.934Z,14.85
2018-07-30T00:42:03.493Z,16.05
2018-07-30T00:44:30.168Z,15.60
2018-07-30T00:46:56.820Z,14.70
2018-07-30T00:49:23.757Z,13.82
2018-07-30T00:51:50.440Z,14.30
2018-07-30T00:54:17.200Z,14.65
2018-07-30T00:56:44.976Z,16.85
2018-07-30T00:59:12.572Z,18.50
2018-07-30T01:01:39.248Z,18.02
2018-07-30T01:04:06.947Z,15.27
2018-07-30T01:06:34.613Z,13.35
2018-07-30T01:09:04.066Z,14.23
2018-07-30T01:11:31.276Z,13.50
2018-07-30T01:13:58.150Z,14.27
2018-07-30T01:16:25.755Z,13.15
2018-07-30T01:18:53.210Z,12.95
2018-07-30T01:21:19.916Z,16.50
2018-07-30T01:23:46.646Z,17.48
2018-07-30T01:26:13.500Z,15.32
2018-07-30T01:28:40.168Z,14.05
2018-07-30T01:31:06.864Z,13.50
2018-07-30T01:33:33.693Z,15.30
2018-07-30T01:36:00.368Z,14.30
2018-07-30T01:38:27.005Z,16.02
2018-07-30T01:40:53.803Z,12.68
2018-07-30T01:43:20.446Z,13.20
2018-07-30T01:45:47.079Z,15.35
2018-07-30T01:48:13.824Z,22.30
2018-07-30T01:50:40.484Z,15.00
2018-07-30T01:53:07.166Z,15.60
2018-07-30T01:55:34.808Z,22.20
2018-07-30T01:58:01.410Z,18.40
2018-07-30T02:00:28.079Z,18.48
2018-07-30T02:02:54.927Z,16.48
2018-07-30T02:05:21.587Z,15.38
2018-07-30T02:07:49.028Z,16.95
2018-07-30T02:10:15.763Z,18.10
2018-07-30T02:12:42.434Z,17.92
2018-07-30T02:15:09.114Z,17.08
2018-07-30T02:17:35.830Z,16.40
2018-07-30T02:20:02.556Z,17.98
2018-07-30T02:22:29.229Z,17.73
2018-07-30T02:24:55.916Z,17.05
2018-07-30T02:27:22.591Z,19.70
2018-07-30T02:29:49.302Z,18.58
2018-07-30T02:32:16.871Z,19.33
2018-07-30T02:34:44.302Z,21.05
2018-07-30T02:37:10.988Z,21.83
2018-07-30T02:39:37.792Z,20.45
2018-07-30T02:42:04.461Z,20.10
2018-07-30T02:44:31.162Z,21.33
2018-07-30T02:46:57.987Z,19.42
2018-07-30T02:49:24.625Z,19.75
2018-07-30T02:51:51.300Z,20.33
2018-07-30T02:54:18.082Z,21.83
2018-07-30T02:56:44.728Z,17.83
2018-07-30T02:59:11.385Z,21.48
2018-07-30T03:01:38.140Z,18.87
2018-07-30T03:04:04.803Z,20.35
2018-07-30T03:06:32.239Z,17.62
2018-07-30T03:08:59.058Z,19.25
2018-07-30T03:11:25.759Z,20.98
2018-07-30T03:13:52.446Z,19.80
2018-07-30T03:16:19.171Z,20.90
2018-07-30T03:18:45.872Z,19.67
2018-07-30T03:21:12.530Z,21.40
2018-07-30T03:23:40.110Z,20.77
2018-07-30T03:26:06.803Z,19.60
2018-07-30T03:28:48.424Z,19.10
2018-07-30T03:31:15.105Z,19.12
2018-07-30T03:33:41.769Z,20.10
2018-07-30T03:36:08.579Z,18.25
2018-07-30T03:38:35.255Z,18.83
2018-07-30T03:41:02.664Z,19.37
2018-07-30T03:43:29.400Z,21.15
2018-07-30T03:45:56.096Z,19.85
2018-07-30T03:48:22.748Z,20.00
2018-07-30T03:50:49.582Z,18.62
2018-07-30T03:53:16.234Z,19.73
2018-07-30T03:55:42.852Z,19.23
2018-07-30T03:58:09.647Z,17.30
2018-07-30T04:00:36.312Z,18.33
2018-07-30T04:03:02.972Z,17.98
2018-07-30T04:05:29.659Z,18.98
2018-07-30T04:07:56.403Z,18.87
2018-07-30T04:10:23.038Z,17.67
2018-07-30T04:12:49.898Z,19.20
2018-07-30T04:15:16.542Z,16.62
2018-07-30T04:17:43.933Z,17.23
2018-07-30T04:20:10.637Z,17.30
2018-07-30T04:22:37.279Z,14.13
2018-07-30T04:25:04.005Z,16.02
2018-07-30T04:27:30.796Z,16.25
2018-07-30T04:29:57.476Z,14.32
2018-07-30T04:32:24.118Z,14.95
2018-07-30T04:34:51.062Z,14.52
2018-07-30T04:37:17.719Z,15.50
2018-07-30T04:39:45.155Z,15.15
2018-07-30T04:42:11.999Z,14.50
2018-07-30T04:44:38.640Z,14.82
2018-07-30T04:47:05.293Z,16.08
2018-07-30T04:49:31.983Z,15.70
2018-07-30T04:51:58.667Z,15.85
2018-07-30T04:54:25.289Z,15.52
2018-07-30T04:56:52.037Z,17.92
2018-07-30T04:59:18.726Z,17.12
2018-07-30T05:01:45.409Z,16.65
2018-07-30T05:04:12.236Z,15.77
2018-07-30T05:06:38.885Z,15.50
2018-07-30T05:09:05.548Z,16.90
2018-07-30T05:11:32.259Z,16.35
2018-07-30T05:13:58.925Z,16.00
2018-07-30T05:16:25.584Z,16.52
2018-07-30T05:18:53.051Z,14.23
2018-07-30T05:21:19.729Z,14.75
2018-07-30T05:23:46.389Z,15.55
2018-07-30T05:26:13.184Z,14.30
2018-07-30T05:28:39.822Z,13.13
2018-07-30T05:31:06.495Z,11.68
2018-07-30T05:33:33.212Z,11.82
2018-07-30T05:35:59.874Z,12.35
2018-07-30T05:38:26.538Z,11.63
2018-07-30T05:40:53.347Z,11.63
2018-07-30T05:43:20.000Z,12.02
2018-07-30T05:45:46.646Z,11.40
2018-07-30T05:48:13.477Z,11.23
2018-07-30T05:50:40.126Z,10.95
2018-07-30T05:53:06.788Z,10.63
2018-07-30T05:55:34.451Z,10.77
2018-07-30T05:58:01.871Z,11.35
2018-07-30T06:00:28.610Z,10.48
2018-07-30T06:02:55.397Z,10.00
2018-07-30T06:05:22.871Z,10.13
2018-07-30T06:07:49.720Z,9.45
2018-07-30T06:10:16.530Z,9.60
2018-07-30T06:12:43.931Z,10.13
2018-07-30T06:15:10.656Z,10.18
2018-07-30T06:17:37.881Z,9.85
2018-07-30T06:20:04.746Z,9.57
2018-07-30T06:22:31.397Z,10.90
2018-07-30T06:24:58.207Z,10.25
2018-07-30T06:27:24.961Z,10.23
2018-07-30T06:29:51.634Z,10.45
2018-07-30T06:32:19.989Z,10.68
2018-07-30T06:34:48.041Z,9.73
2018-07-30T06:37:14.851Z,9.70
2018-07-30T06:39:41.583Z,10.65
2018-07-30T06:42:08.245Z,9.68
2018-07-30T06:44:35.633Z,10.20
2018-07-30T06:47:02.441Z,9.85
2018-07-30T06:49:29.408Z,9.30
2018-07-30T06:51:56.438Z,9.65
2018-07-30T06:54:23.498Z,9.40
2018-07-30T06:56:50.171Z,9.45
2018-07-30T06:59:16.871Z,9.48
2018-07-30T07:01:45.168Z,9.88
2018-07-30T07:04:12.839Z,9.68
2018-07-30T07:06:40.253Z,10.25
2018-07-30T07:09:07.820Z,9.05
2018-07-30T07:11:35.224Z,9.77
2018-07-30T07:14:01.925Z,10.27
2018-07-30T07:16:29.546Z,9.70
2018-07-30T07:18:56.170Z,10.07
2018-07-30T07:21:22.850Z,9.10
2018-07-30T07:23:49.780Z,10.07
2018-07-30T07:26:17.208Z,9.70
2018-07-30T07:28:44.638Z,9.70
2018-07-30T07:31:11.457Z,9.70
2018-07-30T07:33:38.858Z,9.63
2018-07-30T07:36:05.602Z,9.98
2018-07-30T07:41:21.072Z,9.82
2018-07-30T07:43:47.871Z,9.65
2018-07-30T07:46:15.500Z,9.65
2018-07-30T07:48:42.184Z,9.25
2018-07-30T07:51:09.780Z,10.00
2018-07-30T07:53:36.438Z,9.70
2018-07-30T07:56:03.376Z,9.70
2018-07-30T07:58:30.204Z,10.15
2018-07-30T08:00:56.914Z,9.30
2018-07-30T08:03:24.548Z,8.73
2018-07-30T08:05:51.280Z,8.63
2018-07-30T08:08:17.940Z,8.13
2018-07-30T08:10:45.371Z,8.52
2018-07-30T08:13:12.765Z,8.63
2018-07-30T08:15:39.433Z,8.77
2018-07-30T08:18:06.232Z,7.62
2018-07-30T08:20:33.133Z,8.27
2018-07-30T08:22:59.818Z,8.90
2018-07-30T08:25:26.528Z,8.48
2018-07-30T08:27:53.289Z,8.30
2018-07-30T08:30:20.294Z,7.53
2018-07-30T08:32:47.010Z,8.30
2018-07-30T08:35:13.727Z,8.25
2018-07-30T08:37:40.388Z,8.25
2018-07-30T08:40:07.192Z,8.10
2018-07-30T08:42:34.076Z,8.13
2018-07-30T08:45:00.842Z,8.63
2018-07-30T08:47:27.650Z,8.27
2018-07-30T08:49:55.195Z,8.48
2018-07-30T08:52:22.605Z,8.38
2018-07-30T08:54:49.310Z,7.57
2018-07-30T08:57:16.190Z,9.00
2018-07-30T08:59:42.884Z,8.02
2018-07-30T09:02:09.647Z,8.60
2018-07-30T09:04:36.427Z,8.23
2018-07-30T09:07:03.141Z,7.93
2018-07-30T09:09:29.875Z,8.60
2018-07-30T09:11:56.886Z,7.57
2018-07-30T09:14:25.874Z,8.05
2018-07-30T09:16:52.519Z,7.22
2018-07-30T09:19:19.263Z,7.75
2018-07-30T09:21:47.340Z,8.10
2018-07-30T09:24:15.682Z,7.57
2018-07-30T09:26:42.406Z,7.20
2018-07-30T09:29:09.069Z,7.22
2018-07-30T09:31:35.809Z,7.12
2018-07-30T09:34:02.592Z,7.20
2018-07-30T09:36:29.278Z,6.80
2018-07-30T09:38:55.955Z,7.35
2018-07-30T09:41:22.829Z,6.80
2018-07-30T09:43:49.797Z,6.65
2018-07-30T09:46:16.449Z,7.00
2018-07-30T09:48:43.241Z,6.50
2018-07-30T09:51:09.930Z,6.70
2018-07-30T09:53:36.665Z,6.93
2018-07-30T09:56:03.619Z,6.85
2018-07-30T09:58:30.257Z,7.05
2018-07-30T10:00:56.945Z,5.95
2018-07-30T10:03:23.739Z,6.53
2018-07-30T10:05:50.396Z,6.57
2018-07-30T10:08:17.867Z,6.65
2018-07-30T10:10:45.489Z,7.22
2018-07-30T10:13:12.247Z,6.43
2018-07-30T10:15:39.630Z,6.45
2018-07-30T10:18:06.474Z,6.82
2018-07-30T10:20:33.098Z,6.37
2018-07-30T10:23:00.556Z,6.32
2018-07-30T10:25:28.104Z,6.65
2018-07-30T10:27:55.623Z,6.30
2018-07-30T10:30:22.340Z,7.22
2018-07-30T10:32:49.384Z,6.82
2018-07-30T10:35:16.125Z,6.65
2018-07-30T10:37:42.869Z,6.35
2018-07-30T10:40:09.811Z,6.65
2018-07-30T10:42:36.655Z,6.45
2018-07-30T10:45:03.395Z,6.45
2018-07-30T10:47:30.213Z,7.10
2018-07-30T10:49:57.693Z,6.30
2018-07-30T10:52:24.408Z,7.05
2018-07-30T10:54:52.096Z,6.47
2018-07-30T10:57:18.816Z,6.70
2018-07-30T10:59:46.300Z,6.68
2018-07-30T11:02:13.152Z,6.37
2018-07-30T11:04:40.087Z,6.78
2018-07-30T11:07:06.924Z,6.50
2018-07-30T11:09:33.871Z,7.07
2018-07-30T11:12:00.611Z,7.00
2018-07-30T11:14:27.350Z,6.45
2018-07-30T11:16:54.196Z,6.20
2018-07-30T11:19:20.942Z,6.70
2018-07-30T11:21:47.672Z,6.45
2018-07-30T11:24:14.370Z,6.70
2018-07-30T11:26:41.051Z,6.32
2018-07-30T11:29:07.815Z,6.10
2018-07-30T11:31:34.736Z,7.37
2018-07-30T11:34:01.478Z,6.53
2018-07-30T11:36:28.217Z,6.50
2018-07-30T11:38:55.044Z,6.20
2018-07-30T11:41:21.703Z,6.32
2018-07-30T11:43:48.379Z,6.68
2018-07-30T11:46:15.200Z,6.90
2018-07-30T11:48:41.893Z,6.93
2018-07-30T11:51:09.483Z,6.70
2018-07-30T11:53:36.323Z,6.57
2018-07-30T11:56:03.044Z,6.65
2018-07-30T11:58:29.705Z,6.30
2018-07-30T12:00:56.555Z,6.20
2018-07-30T12:03:23.211Z,6.93
2018-07-30T12:05:49.831Z,6.90
2018-07-30T12:08:16.771Z,6.90
2018-07-30T12:10:43.482Z,6.82
2018-07-30T12:13:10.962Z,6.95
2018-07-30T12:15:37.909Z,7.25
2018-07-30T12:18:04.670Z,6.62
2018-07-30T12:20:31.377Z,7.05
2018-07-30T12:22:58.110Z,7.00
2018-07-30T12:25:25.541Z,6.45
2018-07-30T12:27:52.202Z,6.53
2018-07-30T12:30:19.774Z,6.57
2018-07-30T12:32:46.386Z,7.00
2018-07-30T12:35:13.890Z,6.80
2018-07-30T12:37:40.803Z,7.50
2018-07-30T12:40:07.603Z,7.40
2018-07-30T12:42:34.301Z,7.82
2018-07-30T12:45:01.199Z,8.30
2018-07-30T12:47:27.905Z,7.75
2018-07-30T12:49:54.602Z,7.55
2018-07-30T12:52:22.155Z,6.95
2018-07-30T12:54:49.554Z,7.37
2018-07-30T12:57:16.277Z,7.85
2018-07-30T12:59:43.092Z,6.85
2018-07-30T13:02:10.477Z,7.10
2018-07-30T13:04:37.160Z,7.15
2018-07-30T13:07:04.365Z,7.75
2018-07-30T13:09:31.322Z,7.53
2018-07-30T13:11:58.122Z,7.57
2018-07-30T13:14:25.669Z,7.43
2018-07-30T13:16:52.345Z,7.22
2018-07-30T13:19:19.029Z,6.70
2018-07-30T13:21:45.764Z,6.32
2018-07-30T13:24:12.438Z,6.85
2018-07-30T13:26:39.251Z,6.10
2018-07-30T13:29:06.861Z,6.93
2018-07-30T13:31:33.659Z,7.22
2018-07-30T13:34:00.398Z,6.65
2018-07-30T13:36:28.018Z,6.43
2018-07-30T13:38:54.697Z,6.00
2018-07-30T13:41:21.393Z,6.85
2018-07-30T13:43:48.120Z,5.97
2018-07-30T13:46:14.830Z,6.03
2018-07-30T13:48:41.515Z,5.75
2018-07-30T13:51:08.244Z,6.12
2018-07-30T13:53:34.939Z,6.30
2018-07-30T13:56:02.078Z,6.15
2018-07-30T13:58:28.892Z,6.70
2018-07-30T14:00:55.568Z,6.28
2018-07-30T14:03:22.229Z,6.20
2018-07-30T14:05:48.926Z,6.03
2018-07-30T14:08:15.580Z,6.20
2018-07-30T14:10:42.286Z,6.10
2018-07-30T14:13:09.075Z,5.95
2018-07-30T14:15:35.985Z,5.60
2018-07-30T14:18:02.768Z,6.15
2018-07-30T14:20:30.317Z,5.72
2018-07-30T14:22:56.970Z,5.87
2018-07-30T14:25:23.630Z,6.57
2018-07-30T14:27:50.496Z,6.45
2018-07-30T14:30:17.169Z,6.00
2018-07-30T14:35:54.548Z,6.62
2018-07-30T14:38:21.371Z,6.20
2018-07-30T14:40:48.842Z,6.20
2018-07-30T14:43:17.314Z,6.20
2018-07-30T14:45:44.300Z,5.95
2018-07-30T14:48:10.996Z,6.00
2018-07-30T14:50:37.683Z,5.97
2018-07-30T14:53:04.520Z,5.87
2018-07-30T14:55:31.930Z,5.62
2018-07-30T14:57:58.599Z,5.60
2018-07-30T15:00:25.318Z,5.60
2018-07-30T15:02:52.760Z,5.50
2018-07-30T15:05:19.489Z,6.05
2018-07-30T15:07:46.268Z,5.55
2018-07-30T15:10:13.012Z,6.03
2018-07-30T15:12:39.800Z,5.47
2018-07-30T15:15:06.679Z,5.50
2018-07-30T15:17:33.373Z,5.97
2018-07-30T15:20:00.255Z,5.70
2018-07-30T15:22:27.113Z,6.35
2018-07-30T15:24:53.901Z,6.12
2018-07-30T15:27:20.610Z,6.62
2018-07-30T15:29:48.201Z,6.57
2018-07-30T15:32:15.186Z,6.45
2018-07-30T15:34:41.868Z,6.70
2018-07-30T15:37:08.748Z,6.65
2018-07-30T15:39:36.304Z,6.50
2018-07-30T15:42:03.163Z,6.15
2018-07-30T15:44:30.424Z,6.93
2018-07-30T15:46:57.130Z,7.40
2018-07-30T15:49:24.249Z,7.28
2018-07-30T15:51:51.101Z,7.12
2018-07-30T15:54:17.969Z,7.85
2018-07-30T15:56:44.775Z,7.65
2018-07-30T15:59:12.645Z,7.97
2018-07-30T16:01:39.345Z,8.70
2018-07-30T16:04:06.037Z,8.75
2018-07-30T16:06:32.922Z,8.13
2018-07-30T16:08:59.730Z,8.35
2018-07-30T16:11:26.459Z,8.10
2018-07-30T16:13:53.374Z,8.70
2018-07-30T16:16:20.081Z,8.07
2018-07-30T16:18:46.786Z,8.05
2018-07-30T16:21:14.438Z,8.38
2018-07-30T16:23:41.152Z,9.00
2018-07-30T16:26:07.857Z,7.47
2018-07-30T16:28:34.689Z,8.57
2018-07-30T16:31:01.458Z,8.13
2018-07-30T16:33:28.140Z,9.05
2018-07-30T16:35:55.690Z,8.60
2018-07-30T16:38:22.650Z,8.70
2018-07-30T16:40:49.895Z,9.20
2018-07-30T16:43:22.255Z,9.50
2018-07-30T16:45:49.465Z,9.35
2018-07-30T16:48:16.237Z,9.35
2018-07-30T16:50:43.124Z,9.63
2018-07-30T16:53:10.110Z,9.32
2018-07-30T16:55:37.137Z,9.55
2018-07-30T16:58:04.684Z,9.85
2018-07-30T17:00:31.543Z,10.57
2018-07-30T17:02:58.286Z,10.38
2018-07-30T17:05:25.268Z,10.80
2018-07-30T17:07:52.056Z,10.27
2018-07-30T17:10:18.908Z,10.63
2018-07-30T17:12:46.658Z,10.18
2018-07-30T17:15:13.425Z,11.32
2018-07-30T17:17:40.169Z,10.55
2018-07-30T17:20:07.009Z,11.00
2018-07-30T17:22:33.696Z,11.00
2018-07-30T17:25:01.192Z,11.70
2018-07-30T17:27:27.988Z,11.52
2018-07-30T17:29:54.869Z,12.00
2018-07-30T17:32:21.568Z,12.50
2018-07-30T17:34:49.160Z,12.48
2018-07-30T17:37:15.857Z,12.37
2018-07-30T17:39:42.584Z,12.55
2018-07-30T17:42:10.064Z,12.37
2018-07-30T17:44:37.603Z,13.10
2018-07-30T17:47:04.370Z,13.73
2018-07-30T17:49:31.688Z,13.30
2018-07-30T17:51:59.341Z,13.40
2018-07-30T17:54:26.197Z,13.98
2018-07-30T17:56:52.965Z,14.13
2018-07-30T17:59:20.554Z,14.43
2018-07-30T18:01:47.320Z,14.57
2018-07-30T18:04:14.578Z,14.73
2018-07-30T18:06:42.639Z,13.98
2018-07-30T18:09:10.142Z,14.73
2018-07-30T18:11:37.935Z,13.68
2018-07-30T18:14:04.742Z,13.95
2018-07-30T18:16:32.529Z,14.40
2018-07-30T18:18:59.414Z,14.77
2018-07-30T18:21:26.118Z,14.98
2018-07-30T18:23:52.928Z,15.18
2018-07-30T18:26:20.660Z,16.48
2018-07-30T18:28:48.065Z,15.00
2018-07-30T18:31:15.617Z,15.38
2018-07-30T18:33:43.723Z,15.20
2018-07-30T18:36:11.917Z,15.13
2018-07-30T18:38:38.626Z,15.77
2018-07-30T18:41:05.766Z,16.62
2018-07-30T18:43:32.481Z,15.68
2018-07-30T18:45:59.282Z,15.23
2018-07-30T18:48:26.087Z,15.77
2018-07-30T18:50:53.785Z,16.58
2018-07-30T18:53:20.635Z,15.93
2018-07-30T18:55:47.768Z,16.67
2018-07-30T18:58:14.528Z,16.30
2018-07-30T19:00:41.411Z,16.30
2018-07-30T19:03:09.235Z,16.17
2018-07-30T19:05:36.090Z,15.80
2018-07-30T19:08:03.048Z,15.85
2018-07-30T19:10:30.004Z,16.30
2018-07-30T19:12:57.454Z,16.50
2018-07-30T19:15:24.161Z,16.65
2018-07-30T19:17:51.027Z,16.42
2018-07-30T19:20:17.747Z,16.90
2018-07-30T19:22:44.412Z,17.40
2018-07-30T19:25:13.001Z,17.42
2018-07-30T19:27:39.690Z,17.92
2018-07-30T19:30:06.717Z,16.87
2018-07-30T19:32:34.304Z,16.75
2018-07-30T19:35:01.180Z,17.73
2018-07-30T19:37:28.062Z,18.20
2018-07-30T19:39:55.555Z,17.58
2018-07-30T19:42:23.602Z,18.12
2018-07-30T19:44:50.876Z,17.77
2018-07-30T19:47:17.693Z,18.15
2018-07-30T19:49:45.288Z,17.83
2018-07-30T19:52:12.019Z,18.55
2018-07-30T19:54:38.795Z,17.33
2018-07-30T19:57:05.921Z,18.02
2018-07-30T19:59:32.562Z,18.67
2018-07-30T20:01:59.455Z,18.65
2018-07-30T20:04:26.345Z,18.40
2018-07-30T20:06:53.148Z,18.37
2018-07-30T20:09:20.390Z,18.05
2018-07-30T20:11:47.224Z,18.70
2018-07-30T20:14:16.116Z,18.98
2018-07-30T20:16:42.868Z,18.50
2018-07-30T20:19:09.525Z,18.17
2018-07-30T20:21:36.270Z,18.95
2018-07-30T20:24:03.147Z,18.45
2018-07-30T20:26:30.204Z,17.17
2018-07-30T20:28:57.766Z,17.30
2018-07-30T20:31:25.646Z,17.85
2018-07-30T20:33:52.347Z,19.02
2018-07-30T20:36:19.062Z,17.77
2018-07-30T20:38:46.483Z,19.25
2018-07-30T20:41:13.271Z,17.52
2018-07-30T20:43:40.192Z,17.92
2018-07-30T20:46:07.031Z,18.85
2018-07-30T20:48:34.473Z,17.33
2018-07-30T20:51:01.136Z,17.48
2018-07-30T20:53:28.601Z,17.80
2018-07-30T20:55:55.318Z,18.17
2018-07-30T20:58:22.713Z,17.02
2018-07-30T21:00:49.424Z,17.60
2018-07-30T21:03:16.847Z,17.50
2018-07-30T21:05:43.538Z,16.70
2018-07-30T21:08:10.381Z,16.00
2018-07-30T21:10:37.072Z,17.45
2018-07-30T21:13:03.771Z,16.42
2018-07-30T21:15:30.564Z,16.23
2018-07-30T21:17:57.529Z,16.35
2018-07-30T21:20:25.002Z,16.12
2018-07-30T21:22:51.846Z,15.68
2018-07-30T21:25:18.910Z,17.67
2018-07-30T21:27:45.667Z,16.48
2018-07-30T21:30:12.494Z,16.08
2018-07-30T21:32:39.220Z,17.12
2018-07-30T21:35:05.903Z,16.65
2018-07-30T21:37:32.751Z,16.83
2018-07-30T21:39:59.506Z,16.25
2018-07-30T21:42:26.955Z,16.23
2018-07-30T21:44:53.719Z,16.85
2018-07-30T21:47:20.498Z,16.92
2018-07-30T21:49:47.410Z,15.50
2018-07-30T21:52:14.897Z,15.52
2018-07-30T21:54:41.569Z,16.12
2018-07-30T21:57:08.318Z,15.10
2018-07-30T21:59:35.482Z,15.30
2018-07-30T22:02:02.286Z,15.73
2018-07-30T22:04:28.972Z,15.48
2018-07-30T22:06:56.571Z,16.15
2018-07-30T22:09:23.334Z,15.30
2018-07-30T22:11:51.073Z,14.27
2018-07-30T22:14:18.987Z,15.75
2018-07-30T22:16:45.928Z,14.07
2018-07-30T22:19:12.710Z,14.60
2018-07-30T22:21:39.498Z,14.20
2018-07-30T22:24:06.195Z,14.10
2018-07-30T22:26:32.928Z,14.27
2018-07-30T22:28:59.746Z,13.90
2018-07-30T22:31:26.437Z,14.30
2018-07-30T22:33:53.128Z,14.60
2018-07-30T22:36:20.777Z,14.25
2018-07-30T22:38:48.255Z,12.70
2018-07-30T22:41:15.014Z,12.40
2018-07-30T22:43:41.959Z,12.18
2018-07-30T22:46:08.763Z,12.45
2018-07-30T22:48:35.655Z,12.50
2018-07-30T22:51:02.518Z,12.45
2018-07-30T22:53:29.236Z,11.98
2018-07-30T22:55:55.949Z,11.82
2018-07-30T22:58:23.541Z,12.10
2018-07-30T23:00:51.129Z,11.52
2018-07-30T23:03:17.884Z,12.43
2018-07-30T23:05:44.797Z,12.02
2018-07-30T23:08:11.800Z,11.63
2018-07-30T23:10:38.562Z,12.60
2018-07-30T23:13:05.249Z,9.27
2018-07-30T23:15:32.116Z,10.43
2018-07-30T23:17:59.521Z,10.45
2018-07-30T23:20:26.203Z,11.48
2018-07-30T23:22:52.958Z,10.82
2018-07-30T23:25:19.701Z,10.30
2018-07-30T23:27:47.137Z,10.63
2018-07-30T23:30:13.884Z,10.20
2018-07-30T23:32:41.362Z,10.30
2018-07-30T23:35:08.068Z,10.55
2018-07-30T23:37:34.840Z,10.25
2018-07-30T23:40:02.421Z,10.27
2018-07-30T23:42:29.737Z,10.07
2018-07-30T23:44:57.683Z,11.00
2018-07-30T23:47:24.538Z,10.48
2018-07-30T23:49:51.278Z,10.65
2018-07-30T23:52:18.037Z,11.05
2018-07-30T23:54:45.997Z,11.75
2018-07-30T23:57:13.216Z,11.02
2018-07-30T23:59:40.323Z,10.07
